createdAt,value
2023-02-24T00:01:52.742Z,9.40
2023-02-24T00:04:21.245Z,9.40
2023-02-24T00:06:48.871Z,9.40
2023-02-24T00:09:19.561Z,9.30
2023-02-24T00:11:55.521Z,9.20
2023-02-24T00:14:24.816Z,9.10
2023-02-24T00:16:53.504Z,8.90
2023-02-24T00:19:23.760Z,8.90
2023-02-24T00:21:51.772Z,8.90
2023-02-24T00:24:18.723Z,8.90
2023-02-24T00:26:48.524Z,8.80
2023-02-24T00:29:15.421Z,8.70
2023-02-24T00:31:43.382Z,8.70
2023-02-24T00:34:15.189Z,8.80
2023-02-24T00:36:49.992Z,8.90
2023-02-24T00:39:17.317Z,8.90
2023-02-24T00:41:45.213Z,8.90
2023-02-24T00:44:15.301Z,8.90
2023-02-24T00:46:45.119Z,9.00
2023-02-24T00:49:17.382Z,9.00
2023-02-24T00:51:47.476Z,9.10
2023-02-24T00:54:16.588Z,9.00
2023-02-24T00:56:45.439Z,8.90
2023-02-24T00:59:48.590Z,8.80
2023-02-24T01:02:16.095Z,8.80
2023-02-24T01:04:44.760Z,8.70
2023-02-24T01:07:13.851Z,8.80
2023-02-24T01:09:41.958Z,8.70
2023-02-24T01:12:29.936Z,8.60
2023-02-24T01:14:56.891Z,8.40
2023-02-24T01:17:23.961Z,8.20
2023-02-24T01:19:50.995Z,8.10
2023-02-24T01:22:19.955Z,8.00
2023-02-24T01:24:48.624Z,7.90
2023-02-24T01:27:19.133Z,7.90
2023-02-24T01:29:49.380Z,8.00
2023-02-24T01:32:21.902Z,7.90
2023-02-24T01:34:52.244Z,7.90
2023-02-24T01:37:20.111Z,7.80
2023-02-24T01:39:48.020Z,7.70
2023-02-24T01:42:19.624Z,7.60
2023-02-24T01:44:46.984Z,7.60
2023-02-24T01:47:16.547Z,7.70
2023-02-24T01:49:46.944Z,7.70
2023-02-24T01:52:24.369Z,7.70
2023-02-24T01:54:58.107Z,7.80
2023-02-24T01:57:29.574Z,7.80
2023-02-24T02:00:11.251Z,7.80
2023-02-24T02:02:45.925Z,7.90
2023-02-24T02:05:14.278Z,8.00
2023-02-24T02:07:42.516Z,8.10
2023-02-24T02:10:10.808Z,8.20
2023-02-24T02:12:44.578Z,8.20
2023-02-24T02:15:21.649Z,8.20
2023-02-24T02:18:16.082Z,8.10
2023-02-24T02:21:24.948Z,8.00
2023-02-24T02:24:04.620Z,8.00
2023-02-24T02:26:58.372Z,8.00
2023-02-24T02:29:44.951Z,8.00
2023-02-24T02:32:32.529Z,7.80
2023-02-24T02:35:25.492Z,7.70
2023-02-24T02:38:05.485Z,7.50
2023-02-24T02:40:48.953Z,7.50
2023-02-24T02:43:30.899Z,7.60
2023-02-24T02:46:37.309Z,7.70
2023-02-24T02:49:30.526Z,7.80
2023-02-24T02:52:05.845Z,7.80
2023-02-24T02:54:45.908Z,7.90
2023-02-24T02:57:23.525Z,8.00
2023-02-24T03:00:13.412Z,7.90
2023-02-24T03:02:45.340Z,7.80
2023-02-24T03:05:17.564Z,7.80
2023-02-24T03:07:52.625Z,7.80
2023-02-24T03:10:27.828Z,7.60
2023-02-24T03:12:59.966Z,7.50
2023-02-24T03:15:32.835Z,7.40
2023-02-24T03:18:12.562Z,7.30
2023-02-24T03:20:49.171Z,7.20
2023-02-24T03:23:21.229Z,7.20
2023-02-24T03:25:58.834Z,7.30
2023-02-24T03:28:37.521Z,7.40
2023-02-24T03:31:18.292Z,7.60
2023-02-24T03:34:00.665Z,7.60
2023-02-24T03:36:29.497Z,7.70
2023-02-24T03:38:58.327Z,7.80
2023-02-24T03:41:31.488Z,7.90
2023-02-24T03:44:00.132Z,8.00
2023-02-24T03:46:27.745Z,8.00
2023-02-24T03:49:13.145Z,8.10
2023-02-24T03:51:44.884Z,8.20
2023-02-24T03:54:35.983Z,8.10
2023-02-24T03:57:19.057Z,8.00
2023-02-24T04:00:22.884Z,8.00
2023-02-24T04:03:10.643Z,8.00
2023-02-24T04:05:47.624Z,8.10
2023-02-24T04:08:17.370Z,8.10
2023-02-24T04:10:58.512Z,8.10
2023-02-24T04:13:38.496Z,8.10
2023-02-24T04:16:28.149Z,8.10
2023-02-24T04:19:03.924Z,8.10
2023-02-24T04:21:34.253Z,8.20
2023-02-24T04:24:08.628Z,8.20
2023-02-24T04:26:40.423Z,8.20
2023-02-24T04:29:10.608Z,8.10
2023-02-24T04:31:39.071Z,8.10
2023-02-24T04:34:09.542Z,8.00
2023-02-24T04:36:39.043Z,7.90
2023-02-24T04:39:07.750Z,7.90
2023-02-24T04:41:35.871Z,7.90
2023-02-24T04:44:02.819Z,7.90
2023-02-24T04:46:32.540Z,7.90
2023-02-24T04:49:02.287Z,8.00
2023-02-24T04:51:31.903Z,8.00
2023-02-24T04:53:58.869Z,8.00
2023-02-24T04:56:25.858Z,8.10
2023-02-24T04:58:52.825Z,8.10
2023-02-24T05:01:20.019Z,8.10
2023-02-24T05:09:14.388Z,8.20
2023-02-24T05:11:43.843Z,8.20
2023-02-24T05:14:15.491Z,8.20
2023-02-24T05:16:44.155Z,8.20
2023-02-24T05:19:31.876Z,8.20
2023-02-24T05:21:59.012Z,8.20
2023-02-24T05:24:28.728Z,8.20
2023-02-24T05:27:03.870Z,8.20
2023-02-24T05:29:35.580Z,8.20
2023-02-24T05:32:04.757Z,8.20
2023-02-24T05:34:33.490Z,8.20
2023-02-24T05:37:04.511Z,8.20
2023-02-24T05:39:31.523Z,8.20
2023-02-24T05:41:58.564Z,8.20
2023-02-24T05:44:26.792Z,8.10
2023-02-24T05:46:59.307Z,8.10
2023-02-24T05:49:35.690Z,8.10
2023-02-24T05:52:09.233Z,8.00
2023-02-24T05:54:41.777Z,7.90
2023-02-24T05:57:14.996Z,7.90
2023-02-24T05:59:42.979Z,7.90
2023-02-24T06:02:13.652Z,7.90
2023-02-24T06:04:46.723Z,7.90
2023-02-24T06:07:21.134Z,7.90
2023-02-24T06:09:53.844Z,7.90
2023-02-24T06:12:23.569Z,7.90
2023-02-24T06:14:50.549Z,7.90
2023-02-24T06:17:19.012Z,7.80
2023-02-24T06:19:49.539Z,7.70
2023-02-24T06:22:22.739Z,7.70
2023-02-24T06:24:50.516Z,7.70
2023-02-24T06:27:20.028Z,7.70
2023-02-24T06:29:50.067Z,7.70
2023-02-24T06:32:18.671Z,7.80
2023-02-24T06:34:46.028Z,7.80
2023-02-24T06:37:14.480Z,7.90
2023-02-24T06:39:41.600Z,7.90
2023-02-24T06:42:10.652Z,7.90
2023-02-24T06:44:39.132Z,8.00
2023-02-24T06:47:08.173Z,8.00
2023-02-24T06:49:35.167Z,8.00
2023-02-24T06:52:03.259Z,7.90
2023-02-24T06:54:30.678Z,7.90
2023-02-24T06:57:28.204Z,7.90
2023-02-24T06:59:56.215Z,7.90
2023-02-24T07:02:26.746Z,7.90
2023-02-24T07:04:55.332Z,7.90
2023-02-24T07:07:22.704Z,7.90
2023-02-24T07:09:49.697Z,8.00
2023-02-24T07:12:21.077Z,8.00
2023-02-24T07:14:50.420Z,8.10
2023-02-24T07:17:23.538Z,8.10
2023-02-24T07:19:50.449Z,8.10
2023-02-24T07:22:25.185Z,8.20
2023-02-24T07:25:00.443Z,8.20
2023-02-24T07:27:27.729Z,8.20
2023-02-24T07:29:54.694Z,8.30
2023-02-24T07:32:22.843Z,8.20
2023-02-24T07:34:50.088Z,8.20
2023-02-24T07:37:17.152Z,8.20
2023-02-24T07:39:44.142Z,8.20
2023-02-24T07:42:15.079Z,8.10
2023-02-24T07:44:46.786Z,8.10
2023-02-24T07:47:16.026Z,8.10
2023-02-24T07:49:43.313Z,8.10
2023-02-24T07:52:11.679Z,8.20
2023-02-24T07:54:39.463Z,8.20
2023-02-24T07:57:13.668Z,8.20
2023-02-24T07:59:47.640Z,8.20
2023-02-24T08:02:15.944Z,8.20
2023-02-24T08:04:50.196Z,8.30
2023-02-24T08:07:30.471Z,8.40
2023-02-24T08:10:24.491Z,8.30
2023-02-24T08:12:56.967Z,8.30
2023-02-24T08:15:26.463Z,8.40
2023-02-24T08:17:59.640Z,8.40
2023-02-24T08:20:36.127Z,8.50
2023-02-24T08:23:06.568Z,8.50
2023-02-24T08:25:36.519Z,8.50
2023-02-24T08:28:09.472Z,8.50
2023-02-24T08:30:39.687Z,8.50
2023-02-24T08:33:11.021Z,8.50
2023-02-24T08:35:44.559Z,8.50
2023-02-24T08:38:17.998Z,8.40
2023-02-24T08:40:51.693Z,8.50
2023-02-24T08:43:38.376Z,8.60
2023-02-24T08:46:12.641Z,8.70
2023-02-24T08:48:46.600Z,8.70
2023-02-24T08:51:17.939Z,8.70
2023-02-24T08:53:47.011Z,8.70
2023-02-24T08:56:24.254Z,8.70
2023-02-24T08:59:07.055Z,8.70
2023-02-24T09:01:37.567Z,8.70
2023-02-24T09:04:19.165Z,8.70
2023-02-24T09:07:10.756Z,8.70
2023-02-24T09:09:42.365Z,8.70
2023-02-24T09:12:21.965Z,8.80
2023-02-24T09:14:50.845Z,8.70
2023-02-24T09:17:20.811Z,8.70
2023-02-24T09:19:50.155Z,8.70
2023-02-24T09:22:33.425Z,8.70
2023-02-24T09:25:18.057Z,8.70
2023-02-24T09:27:52.342Z,8.70
2023-02-24T09:30:36.605Z,8.70
2023-02-24T09:33:19.188Z,8.50
2023-02-24T09:35:48.631Z,8.40
2023-02-24T09:38:17.969Z,8.40
2023-02-24T09:40:49.068Z,8.40
2023-02-24T09:43:27.999Z,8.40
2023-02-24T09:46:14.554Z,8.50
2023-02-24T09:49:05.432Z,8.50
2023-02-24T09:51:42.340Z,8.40
2023-02-24T09:54:16.430Z,8.50
2023-02-24T09:57:09.015Z,8.50
2023-02-24T10:00:22.154Z,8.40
2023-02-24T10:03:03.906Z,8.30
2023-02-24T10:05:47.398Z,8.30
2023-02-24T10:08:38.268Z,8.30
2023-02-24T10:11:09.184Z,8.30
2023-02-24T10:13:43.636Z,8.40
2023-02-24T10:16:16.648Z,8.40
2023-02-24T10:19:01.453Z,8.40
2023-02-24T10:21:49.776Z,8.30
2023-02-24T10:24:35.843Z,8.40
2023-02-24T10:27:32.982Z,8.50
2023-02-24T10:30:19.666Z,8.40
2023-02-24T10:32:54.786Z,8.40
2023-02-24T10:35:26.181Z,8.40
2023-02-24T10:37:54.129Z,8.40
2023-02-24T10:40:44.799Z,8.50
2023-02-24T10:43:18.619Z,8.70
2023-02-24T10:45:47.103Z,8.90
2023-02-24T10:48:42.984Z,8.90
2023-02-24T10:51:31.924Z,9.00
2023-02-24T10:54:23.190Z,9.00
2023-02-24T10:57:18.182Z,9.00
2023-02-24T11:04:01.644Z,9.10
2023-02-24T11:06:52.619Z,9.20
2023-02-24T11:09:30.218Z,9.30
2023-02-24T11:12:25.411Z,9.20
2023-02-24T11:15:22.235Z,9.20
2023-02-24T11:17:59.906Z,9.00
2023-02-24T11:24:53.896Z,9.10
2023-02-24T11:27:23.754Z,9.10
2023-02-24T11:30:02.603Z,9.10
2023-02-24T11:32:45.577Z,9.10
2023-02-24T11:35:23.413Z,9.10
2023-02-24T11:38:09.759Z,9.20
2023-02-24T11:40:45.113Z,9.30
2023-02-24T11:43:18.631Z,9.30
2023-02-24T11:46:07.369Z,9.20
2023-02-24T11:48:51.986Z,9.20
2023-02-24T11:51:27.587Z,9.20
2023-02-24T11:54:06.517Z,9.20
2023-02-24T11:56:48.428Z,9.20
2023-02-24T11:59:36.485Z,9.10
2023-02-24T12:02:23.653Z,9.10
2023-02-24T12:04:51.056Z,9.00
2023-02-24T12:07:23.479Z,9.00
2023-02-24T12:10:16.686Z,9.00
2023-02-24T12:12:47.994Z,9.10
2023-02-24T12:15:58.296Z,9.20
2023-02-24T12:18:41.064Z,9.20
2023-02-24T12:21:25.308Z,9.10
2023-02-24T12:23:53.777Z,9.00
2023-02-24T12:26:42.846Z,9.00
2023-02-24T12:29:42.394Z,9.00
2023-02-24T12:32:41.443Z,9.00
2023-02-24T12:35:19.935Z,8.90
2023-02-24T12:38:05.566Z,8.90
2023-02-24T12:41:13.772Z,8.80
2023-02-24T12:44:02.485Z,8.70
2023-02-24T12:46:40.103Z,8.70
2023-02-24T12:49:40.410Z,8.70
2023-02-24T12:52:16.617Z,8.80
2023-02-24T12:55:06.215Z,8.90
2023-02-24T12:58:12.207Z,9.10
2023-02-24T13:00:57.447Z,9.20
2023-02-24T13:03:49.754Z,9.30
2023-02-24T13:06:25.568Z,9.40
2023-02-24T13:09:05.781Z,9.50
2023-02-24T13:12:11.042Z,9.60
2023-02-24T13:14:43.804Z,9.50
2023-02-24T13:17:10.858Z,9.40
2023-02-24T13:19:43.572Z,9.30
2023-02-24T13:22:13.709Z,9.30
2023-02-24T13:24:42.073Z,9.30
2023-02-24T13:27:21.149Z,9.40
2023-02-24T13:29:51.927Z,9.50
2023-02-24T13:32:54.948Z,9.70
2023-02-24T13:35:22.050Z,9.90
2023-02-24T13:37:49.414Z,10.00
2023-02-24T13:40:19.112Z,10.00
2023-02-24T13:43:01.010Z,10.00
2023-02-24T13:45:29.222Z,9.90
2023-02-24T13:48:33.414Z,9.80
2023-02-24T13:55:20.001Z,9.70
2023-02-24T13:58:24.525Z,9.70
2023-02-24T14:00:52.593Z,9.70
2023-02-24T14:03:24.449Z,9.70
2023-02-24T14:05:51.920Z,9.60
2023-02-24T14:08:27.599Z,9.60
2023-02-24T14:10:57.436Z,9.50
2023-02-24T14:13:29.994Z,9.40
2023-02-24T14:20:21.345Z,9.30
2023-02-24T14:22:58.868Z,9.10
2023-02-24T14:25:30.203Z,8.90
2023-02-24T14:28:25.120Z,8.90
2023-02-24T14:30:58.769Z,8.80
2023-02-24T14:34:09.863Z,8.90
2023-02-24T14:36:43.792Z,8.90
2023-02-24T14:39:26.720Z,8.90
2023-02-24T14:42:07.345Z,8.80
2023-02-24T14:44:40.135Z,8.80
2023-02-24T14:47:11.210Z,8.80
2023-02-24T14:49:38.715Z,8.90
2023-02-24T14:52:27.789Z,9.00
2023-02-24T14:55:00.850Z,9.00
2023-02-24T14:57:33.319Z,9.00
2023-02-24T15:00:17.404Z,9.00
2023-02-24T15:02:48.852Z,9.10
2023-02-24T15:05:16.880Z,9.00
2023-02-24T15:07:45.429Z,8.90
2023-02-24T15:10:25.252Z,8.80
2023-02-24T15:12:54.045Z,8.70
2023-02-24T15:15:27.045Z,8.70
2023-02-24T15:18:00.247Z,8.70
2023-02-24T15:20:33.484Z,8.60
2023-02-24T15:23:01.298Z,8.60
2023-02-24T15:25:42.291Z,8.60
2023-02-24T15:28:24.894Z,8.60
2023-02-24T15:31:00.837Z,8.60
2023-02-24T15:33:37.124Z,8.60
2023-02-24T15:36:12.542Z,8.70
2023-02-24T15:38:42.827Z,8.70
2023-02-24T15:41:11.568Z,8.80
2023-02-24T15:43:48.392Z,8.70
2023-02-24T15:46:30.523Z,8.50
2023-02-24T15:49:01.838Z,8.50
2023-02-24T15:51:39.877Z,8.50
2023-02-24T15:54:13.402Z,8.50
2023-02-24T15:56:41.558Z,8.50
2023-02-24T15:59:10.471Z,8.50
2023-02-24T16:01:37.454Z,8.50
2023-02-24T16:04:09.699Z,8.50
2023-02-24T16:06:41.831Z,8.40
2023-02-24T16:09:14.346Z,8.40
2023-02-24T16:11:44.122Z,8.30
2023-02-24T16:14:14.133Z,8.20
2023-02-24T16:16:42.048Z,8.20
2023-02-24T16:19:13.783Z,8.10
2023-02-24T16:21:41.342Z,8.10
2023-02-24T16:24:08.309Z,8.00
2023-02-24T16:26:39.583Z,8.00
2023-02-24T16:29:11.667Z,8.00
2023-02-24T16:31:39.582Z,8.00
2023-02-24T16:34:07.967Z,8.00
2023-02-24T16:36:35.858Z,8.00
2023-02-24T16:39:04.868Z,7.90
2023-02-24T16:41:31.881Z,7.80
2023-02-24T16:43:58.927Z,7.80
2023-02-24T16:46:32.928Z,7.70
2023-02-24T16:53:22.703Z,7.70
2023-02-24T16:55:50.698Z,7.70
2023-02-24T16:58:18.144Z,7.60
2023-02-24T17:00:48.989Z,7.60
2023-02-24T17:03:24.197Z,7.60
2023-02-24T17:05:51.878Z,7.60
2023-02-24T17:08:19.345Z,7.60
2023-02-24T17:10:47.091Z,7.50
2023-02-24T17:13:17.349Z,7.50
2023-02-24T17:15:44.582Z,7.50
2023-02-24T17:18:12.203Z,7.50
2023-02-24T17:20:40.907Z,7.50
2023-02-24T17:23:08.222Z,7.40
2023-02-24T17:25:35.185Z,7.50
2023-02-24T17:28:04.021Z,7.50
2023-02-24T17:30:34.402Z,7.60
2023-02-24T17:33:14.556Z,7.60
2023-02-24T17:35:47.065Z,7.60
2023-02-24T17:38:19.885Z,7.50
2023-02-24T17:40:47.612Z,7.40
2023-02-24T17:43:15.015Z,7.30
2023-02-24T17:45:45.041Z,7.30
2023-02-24T17:48:13.784Z,7.30
2023-02-24T17:50:43.082Z,7.20
2023-02-24T17:53:10.857Z,7.20
2023-02-24T17:55:37.885Z,7.10
2023-02-24T17:58:05.049Z,7.10
2023-02-24T18:00:32.155Z,7.10
2023-02-24T18:03:00.183Z,7.10
2023-02-24T18:05:28.593Z,7.00
2023-02-24T18:07:58.878Z,7.00
2023-02-24T18:10:27.315Z,7.00
2023-02-24T18:12:54.576Z,7.00
2023-02-24T18:15:21.545Z,7.00
2023-02-24T18:17:49.120Z,7.00
2023-02-24T18:20:16.300Z,7.00
2023-02-24T18:22:43.394Z,7.00
2023-02-24T18:25:10.522Z,7.00
2023-02-24T18:28:46.441Z,7.10
2023-02-24T18:31:16.895Z,7.10
2023-02-24T18:33:44.160Z,7.20
2023-02-24T18:36:14.325Z,7.20
2023-02-24T18:38:41.376Z,7.20
2023-02-24T18:41:27.533Z,7.10
2023-02-24T18:43:57.063Z,7.10
2023-02-24T18:46:25.775Z,7.10
2023-02-24T18:48:53.097Z,7.10
2023-02-24T18:51:22.838Z,7.00
2023-02-24T18:53:52.400Z,7.00
2023-02-24T18:56:23.389Z,7.00
2023-02-24T18:58:52.765Z,6.90
2023-02-24T19:01:23.264Z,6.90
2023-02-24T19:03:51.448Z,6.90
2023-02-24T19:06:20.917Z,6.90
2023-02-24T19:08:49.652Z,6.90
2023-02-24T19:11:20.707Z,6.90
2023-02-24T19:13:47.989Z,6.90
2023-02-24T19:16:16.549Z,6.90
2023-02-24T19:18:43.799Z,6.90
2023-02-24T19:21:11.141Z,6.90
2023-02-24T19:23:39.006Z,6.80
2023-02-24T19:26:07.871Z,6.80
2023-02-24T19:28:38.332Z,6.90
2023-02-24T19:31:06.115Z,6.90
2023-02-24T19:33:33.466Z,6.80
2023-02-24T19:36:00.538Z,6.90
2023-02-24T19:38:28.506Z,7.00
2023-02-24T19:40:59.373Z,7.00
2023-02-24T19:43:26.707Z,7.00
2023-02-24T19:45:54.230Z,7.00
2023-02-24T19:48:21.412Z,6.90
2023-02-24T19:50:48.649Z,6.70
2023-02-24T19:53:15.841Z,6.60
2023-02-24T19:55:49.243Z,6.50
2023-02-24T19:58:17.035Z,6.40
2023-02-24T20:00:44.058Z,6.40
2023-02-24T20:03:11.839Z,6.20
2023-02-24T20:05:39.440Z,6.10
2023-02-24T20:08:09.706Z,6.00
2023-02-24T20:10:36.851Z,6.00
2023-02-24T20:13:04.951Z,6.00
2023-02-24T20:15:36.093Z,5.90
2023-02-24T20:18:04.809Z,5.90
2023-02-24T20:20:32.039Z,5.80
2023-02-24T20:23:00.155Z,5.70
2023-02-24T20:25:27.258Z,5.50
2023-02-24T20:27:54.388Z,5.40
2023-02-24T20:30:21.627Z,5.30
2023-02-24T20:32:48.910Z,5.10
2023-02-24T20:35:21.930Z,4.90
2023-02-24T20:37:49.059Z,4.80
2023-02-24T20:40:16.611Z,4.80
2023-02-24T20:42:44.026Z,4.80
2023-02-24T20:45:12.363Z,4.60
2023-02-24T20:47:39.732Z,4.50
2023-02-24T20:50:07.197Z,4.40
2023-02-24T20:52:34.449Z,4.30
2023-02-24T20:55:01.414Z,4.20
2023-02-24T20:58:10.834Z,4.20
2023-02-24T21:00:40.108Z,4.30
2023-02-24T21:03:12.051Z,4.30
2023-02-24T21:05:39.684Z,4.30
2023-02-24T21:08:06.673Z,4.30
2023-02-24T21:10:33.716Z,4.20
2023-02-24T21:13:00.774Z,4.10
2023-02-24T21:15:27.828Z,3.90
2023-02-24T21:17:54.867Z,3.80
2023-02-24T21:20:21.847Z,3.60
2023-02-24T21:22:48.798Z,3.50
2023-02-24T21:25:15.797Z,3.40
2023-02-24T21:27:42.749Z,3.30
2023-02-24T21:30:11.245Z,3.30
2023-02-24T21:32:38.913Z,3.20
2023-02-24T21:35:06.680Z,3.20
2023-02-24T21:37:35.260Z,3.20
2023-02-24T21:40:02.745Z,3.30
2023-02-24T21:42:30.202Z,3.40
2023-02-24T21:45:02.486Z,3.30
2023-02-24T21:48:01.132Z,3.30
2023-02-24T21:50:28.324Z,3.30
2023-02-24T21:57:20.311Z,3.40
2023-02-24T21:59:47.782Z,3.50
2023-02-24T22:02:17.989Z,3.50
2023-02-24T22:04:45.352Z,3.40
2023-02-24T22:07:12.314Z,3.40
2023-02-24T22:09:39.384Z,3.50
2023-02-24T22:12:08.689Z,3.50
2023-02-24T22:14:35.747Z,3.40
2023-02-24T22:17:04.848Z,3.40
2023-02-24T22:19:41.327Z,3.30
2023-02-24T22:22:09.007Z,3.30
2023-02-24T22:25:44.793Z,3.40
2023-02-24T22:28:12.395Z,3.40
2023-02-24T22:30:39.809Z,3.30
2023-02-24T22:33:07.420Z,3.30
2023-02-24T22:36:07.926Z,3.20
2023-02-24T22:38:37.866Z,3.30
2023-02-24T22:41:09.590Z,3.30
2023-02-24T22:44:19.661Z,3.30
2023-02-24T22:46:47.807Z,3.40
2023-02-24T22:49:15.108Z,3.40
2023-02-24T22:52:51.538Z,3.40
2023-02-24T22:55:19.810Z,3.40
2023-02-24T22:57:46.852Z,3.50
2023-02-24T23:00:20.310Z,3.60
2023-02-24T23:02:47.377Z,3.60
2023-02-24T23:05:15.558Z,3.60
2023-02-24T23:07:42.851Z,3.50
2023-02-24T23:10:10.683Z,3.50
2023-02-24T23:12:37.670Z,3.40
2023-02-24T23:15:05.190Z,3.40
2023-02-24T23:17:45.262Z,3.20
2023-02-24T23:20:15.540Z,3.10
2023-02-24T23:22:43.260Z,3.00
2023-02-24T23:25:10.987Z,3.00
2023-02-24T23:27:42.005Z,3.00
2023-02-24T23:30:11.126Z,3.00
2023-02-24T23:32:38.307Z,3.00
2023-02-24T23:35:05.980Z,3.10
2023-02-24T23:37:34.162Z,3.10
2023-02-24T23:40:26.295Z,3.00
2023-02-24T23:42:54.415Z,2.90
2023-02-24T23:45:21.395Z,3.00
2023-02-24T23:47:48.451Z,3.00
2023-02-24T23:50:15.671Z,3.00
2023-02-24T23:52:42.926Z,3.00
2023-02-24T23:55:11.634Z,3.00
2023-02-24T23:57:39.568Z,3.00
